Time;durP1;ratioP1;P1;durP2;ratioP2;P2;SDS_P1;SDS_P2;PMS_P1;PMS_P2;Temp;Humidity;BMP_temperature;BMP_pressure;BME280_temperature;BME280_humidity;BME280_pressure;Samples;Min_cycle;Max_cycle;Signal;HPM_P1;HPM_P2
2022/04/06 00:00:43;;;;;;;68.95;36.20;;;9.80;99.90;;;;;;5112868;28;20024;-71
2022/04/06 00:03:09;;;;;;;67.28;37.80;;;9.80;99.90;;;;;;5113956;28;20527;-71
2022/04/06 00:05:35;;;;;;;72.03;37.85;;;9.80;99.90;;;;;;5113927;28;20106;-71
2022/04/06 00:08:01;;;;;;;71.57;36.65;;;9.80;99.90;;;;;;5113839;28;20057;-71
2022/04/06 00:10:28;;;;;;;69.03;36.63;;;9.80;99.90;;;;;;5112595;28;20019;-71
2022/04/06 00:12:54;;;;;;;67.78;38.33;;;9.80;99.90;;;;;;5095693;28;20019;-71
2022/04/06 00:15:19;;;;;;;66.35;36.03;;;9.80;99.90;;;;;;5113868;28;20385;-71
2022/04/06 00:17:46;;;;;;;69.78;36.30;;;9.80;99.90;;;;;;5112665;28;20027;-71
2022/04/06 00:20:12;;;;;;;67.55;34.40;;;9.80;99.90;;;;;;5112622;28;20477;-71
2022/04/06 00:22:38;;;;;;;58.88;35.45;;;9.80;99.90;;;;;;5095226;28;20031;-71
2022/04/06 00:25:04;;;;;;;65.80;33.45;;;9.90;99.90;;;;;;5113832;28;20072;-71
2022/04/06 00:27:29;;;;;;;70.03;34.83;;;9.90;99.90;;;;;;5095467;28;20051;-72
2022/04/06 00:29:55;;;;;;;64.15;33.13;;;9.90;99.90;;;;;;5112460;28;20016;-71
2022/04/06 00:32:20;;;;;;;62.88;31.58;;;9.90;99.90;;;;;;5113587;28;20153;-72
2022/04/06 00:37:31;;;;;;;61.28;30.23;;;9.80;99.90;;;;;;5113386;28;20027;-71
2022/04/06 00:39:57;;;;;;;58.03;28.30;;;9.80;99.90;;;;;;5112317;28;20473;-71
2022/04/06 00:42:22;;;;;;;55.83;29.55;;;9.80;99.90;;;;;;5113428;28;20036;-72
2022/04/06 00:44:48;;;;;;;53.20;28.52;;;9.80;99.90;;;;;;5113495;28;20388;-71
2022/04/06 00:47:13;;;;;;;58.30;26.95;;;9.80;99.90;;;;;;5112106;28;20076;-71
2022/04/06 00:49:39;;;;;;;57.38;26.35;;;9.80;99.90;;;;;;5113533;28;20026;-71
2022/04/06 00:52:06;;;;;;;53.95;27.02;;;9.80;99.90;;;;;;5113451;28;20031;-71
2022/04/06 00:54:34;;;;;;;49.35;25.58;;;9.80;99.90;;;;;;5113450;28;20023;-71
2022/04/06 00:57:00;;;;;;;50.50;24.50;;;9.80;99.90;;;;;;5113384;28;20023;-71
2022/04/06 00:59:28;;;;;;;53.28;25.35;;;9.80;99.90;;;;;;5113345;28;20015;-71
2022/04/06 01:01:55;;;;;;;51.28;25.25;;;9.80;99.90;;;;;;5113376;28;20031;-71
2022/04/06 01:04:21;;;;;;;50.75;23.63;;;9.80;99.90;;;;;;5113471;28;20012;-71
2022/04/06 01:06:49;;;;;;;55.72;24.02;;;9.70;99.90;;;;;;5113331;28;20026;-71
2022/04/06 01:09:16;;;;;;;49.55;22.10;;;9.70;99.90;;;;;;5095209;28;20029;-71
2022/04/06 01:11:44;;;;;;;56.28;22.95;;;9.70;99.90;;;;;;5113374;28;20381;-71
2022/04/06 01:14:11;;;;;;;49.85;22.15;;;9.70;99.90;;;;;;5113301;28;20020;-71
2022/04/06 01:16:37;;;;;;;49.30;21.88;;;9.70;99.90;;;;;;5113117;28;20051;-71
2022/04/06 01:19:03;;;;;;;45.20;20.08;;;9.70;99.90;;;;;;5111910;28;20104;-72
2022/04/06 01:21:29;;;;;;;47.05;20.70;;;9.70;99.90;;;;;;5113158;28;20498;-71
2022/04/06 01:23:55;;;;;;;47.30;20.50;;;9.70;99.90;;;;;;5095016;28;20080;-71
2022/04/06 01:26:20;;;;;;;49.03;21.92;;;9.70;99.90;;;;;;5111888;28;20478;-71
2022/04/06 01:28:46;;;;;;;41.35;21.58;;;9.70;99.90;;;;;;5112886;28;20498;-71
2022/04/06 01:31:12;;;;;;;40.47;19.42;;;9.60;99.90;;;;;;5111961;28;20154;-71
2022/04/06 01:33:38;;;;;;;37.95;19.20;;;9.60;99.90;;;;;;5113107;28;20015;-71
2022/04/06 01:36:03;;;;;;;41.30;18.98;;;9.60;99.90;;;;;;5115798;28;20073;-71
2022/04/06 01:38:29;;;;;;;43.38;18.92;;;9.60;99.90;;;;;;5116706;28;20047;-71
2022/04/06 01:40:55;;;;;;;41.35;18.60;;;9.60;99.90;;;;;;5115346;28;20478;-71
2022/04/06 01:43:21;;;;;;;46.30;18.45;;;9.60;99.90;;;;;;5115349;28;20028;-71
2022/04/06 01:45:47;;;;;;;42.70;18.63;;;9.60;99.90;;;;;;5116630;28;20419;-70
2022/04/06 01:48:15;;;;;;;46.58;17.92;;;9.60;99.90;;;;;;5115175;28;20031;-71
2022/04/06 01:53:28;;;;;;;37.63;17.30;;;9.60;99.90;;;;;;5116278;28;20024;-70
2022/04/06 01:55:54;;;;;;;38.50;17.60;;;9.60;99.90;;;;;;5116394;28;20028;-71
2022/04/06 01:58:20;;;;;;;31.70;16.13;;;9.60;99.90;;;;;;5116415;28;20428;-71
2022/04/06 02:00:47;;;;;;;33.88;15.07;;;9.60;99.90;;;;;;5115156;28;20085;-70
2022/04/06 02:03:12;;;;;;;39.90;16.73;;;9.50;99.90;;;;;;5116344;27;20430;-70
2022/04/06 02:05:38;;;;;;;42.88;16.70;;;9.50;99.90;;;;;;5116269;28;20063;-70
2022/04/06 02:08:04;;;;;;;31.02;15.85;;;9.60;99.90;;;;;;5097793;28;20028;-71
2022/04/06 02:10:29;;;;;;;32.30;15.88;;;9.50;99.90;;;;;;5116117;28;20015;-70
2022/04/06 02:12:57;;;;;;;32.92;15.68;;;9.50;99.90;;;;;;5116098;28;20027;-71
2022/04/06 02:15:23;;;;;;;32.08;15.65;;;9.50;99.90;;;;;;5114889;28;20106;-70
2022/04/06 02:17:49;;;;;;;34.83;15.82;;;9.50;99.90;;;;;;5116069;28;20027;-70
2022/04/06 02:20:15;;;;;;;35.78;16.23;;;9.50;99.90;;;;;;5115926;28;20027;-70
2022/04/06 02:22:41;;;;;;;30.08;14.30;;;9.40;99.90;;;;;;5114733;28;20389;-71
2022/04/06 02:25:08;;;;;;;39.97;16.17;;;9.40;99.90;;;;;;5115915;28;20023;-71
2022/04/06 02:27:33;;;;;;;31.98;13.68;;;9.40;99.90;;;;;;5115617;28;20046;-70
2022/04/06 02:29:59;;;;;;;31.58;14.02;;;9.50;99.90;;;;;;5115759;28;20024;-70
2022/04/06 02:32:25;;;;;;;32.53;13.20;;;9.40;99.90;;;;;;5115715;28;20023;-71
2022/04/06 02:34:50;;;;;;;31.88;13.68;;;9.40;99.90;;;;;;5114462;28;20057;-71
2022/04/06 02:37:16;;;;;;;27.30;14.00;;;9.40;99.90;;;;;;5115558;28;20061;-71
2022/04/06 02:39:41;;;;;;;29.02;14.10;;;9.40;99.90;;;;;;5114419;28;20438;-70
2022/04/06 02:42:07;;;;;;;30.98;14.30;;;9.40;99.90;;;;;;5115534;28;20020;-71
2022/04/06 02:44:33;;;;;;;29.80;13.32;;;9.30;99.90;;;;;;5115567;28;20231;-70
2022/04/06 02:46:59;;;;;;;31.80;14.07;;;9.40;99.90;;;;;;5114139;28;20027;-70
2022/04/06 02:49:25;;;;;;;30.70;14.40;;;9.40;99.90;;;;;;5115370;28;20020;-70
2022/04/06 02:51:51;;;;;;;29.55;14.77;;;9.40;99.90;;;;;;5115346;28;20024;-71
2022/04/06 02:54:16;;;;;;;29.60;14.65;;;9.40;99.90;;;;;;5115235;28;20059;-70
2022/04/06 02:56:42;;;;;;;29.98;13.30;;;9.40;99.90;;;;;;5115262;28;20024;-70
2022/04/06 02:59:08;;;;;;;30.38;13.63;;;9.40;99.90;;;;;;5115274;28;20035;-71
2022/04/06 03:01:34;;;;;;;28.42;14.40;;;9.40;99.90;;;;;;5115088;28;20080;-70
2022/04/06 03:03:59;;;;;;;27.58;13.57;;;9.40;99.90;;;;;;5113808;28;20362;-70
2022/04/06 03:06:25;;;;;;;29.05;14.80;;;9.40;99.90;;;;;;5115001;28;20035;-71
2022/04/06 03:08:50;;;;;;;26.83;14.60;;;9.30;99.90;;;;;;5114904;28;20385;-70
2022/04/06 03:11:16;;;;;;;32.45;15.43;;;9.30;99.90;;;;;;5114912;28;20062;-70
2022/04/06 03:13:41;;;;;;;22.65;13.30;;;9.30;99.90;;;;;;5096546;28;20016;-70
2022/04/06 03:16:07;;;;;;;33.20;15.10;;;9.30;99.90;;;;;;5113504;28;20077;-70
2022/04/06 03:18:33;;;;;;;36.58;15.27;;;9.30;99.90;;;;;;5114870;28;20544;-70
2022/04/06 03:20:59;;;;;;;31.48;15.05;;;9.40;99.90;;;;;;5096410;28;20019;-70
2022/04/06 03:23:24;;;;;;;34.70;15.80;;;9.30;99.90;;;;;;5114650;28;20522;-70
2022/04/06 03:25:50;;;;;;;38.40;15.32;;;9.30;99.90;;;;;;5114683;28;20027;-70
2022/04/06 03:28:16;;;;;;;34.35;16.35;;;9.30;99.90;;;;;;5114344;28;20048;-70
2022/04/06 03:30:41;;;;;;;33.67;16.25;;;9.40;99.90;;;;;;5113381;28;20031;-71
2022/04/06 03:33:09;;;;;;;34.25;16.13;;;9.40;99.90;;;;;;5113352;28;20027;-70
2022/04/06 03:35:36;;;;;;;37.63;17.08;;;9.40;99.90;;;;;;5096619;28;20076;-70
2022/04/06 03:38:02;;;;;;;32.80;16.17;;;9.30;99.90;;;;;;5114398;28;20028;-70
2022/04/06 03:40:28;;;;;;;36.75;17.30;;;9.30;99.90;;;;;;5096063;28;20026;-70
2022/04/06 03:42:55;;;;;;;38.35;16.50;;;9.30;99.90;;;;;;5113256;28;20043;-70
2022/04/06 03:45:21;;;;;;;36.83;16.77;;;9.30;99.90;;;;;;5114276;28;20028;-70
2022/04/06 03:47:47;;;;;;;34.17;16.08;;;9.40;99.90;;;;;;5114181;28;20019;-70
2022/04/06 03:50:12;;;;;;;36.63;16.90;;;9.30;99.90;;;;;;5114232;28;20024;-70
2022/04/06 03:52:38;;;;;;;33.22;16.33;;;9.30;99.90;;;;;;5112954;28;20112;-70
2022/04/06 03:55:05;;;;;;;38.10;16.38;;;9.30;99.90;;;;;;5113037;28;20016;-70
2022/04/06 03:57:31;;;;;;;37.80;16.20;;;9.30;99.90;;;;;;5113696;28;20020;-71
2022/04/06 03:59:56;;;;;;;28.13;14.98;;;9.30;99.90;;;;;;5113959;28;20032;-70
2022/04/06 04:02:22;;;;;;;30.60;14.60;;;9.30;99.90;;;;;;5112802;28;20439;-70
2022/04/06 04:04:47;;;;;;;31.27;13.88;;;9.30;99.90;;;;;;5113995;28;20069;-70
2022/04/06 04:07:20;;;;;;;32.00;13.65;;;9.30;99.90;;;;;;5113893;28;20027;-70
2022/04/06 04:09:46;;;;;;;27.00;13.03;;;9.30;99.90;;;;;;5113986;28;20019;-70
2022/04/06 04:12:12;;;;;;;28.92;12.27;;;9.30;99.90;;;;;;5113852;28;20371;-70
2022/04/06 04:14:37;;;;;;;29.27;12.85;;;9.30;99.90;;;;;;5113768;28;20043;-70
2022/04/06 04:17:03;;;;;;;22.70;11.38;;;9.30;99.90;;;;;;5112662;28;20037;-70
2022/04/06 04:19:31;;;;;;;24.60;11.13;;;9.30;99.90;;;;;;5113773;28;20030;-70
2022/04/06 04:21:56;;;;;;;25.42;11.45;;;9.30;99.90;;;;;;5113727;28;20016;-71
2022/04/06 04:24:22;;;;;;;25.80;10.65;;;9.20;99.90;;;;;;5112555;28;20432;-70
2022/04/06 04:26:47;;;;;;;22.05;9.93;;;9.30;99.90;;;;;;5113465;28;20057;-71
2022/04/06 04:29:14;;;;;;;21.90;9.88;;;9.20;99.90;;;;;;5112327;28;20123;-70
2022/04/06 04:31:39;;;;;;;26.40;9.90;;;9.30;99.90;;;;;;5113722;28;20035;-69
2022/04/06 04:34:05;;;;;;;22.35;9.98;;;9.30;99.90;;;;;;5112505;28;20031;-71
2022/04/06 04:36:30;;;;;;;24.48;9.27;;;9.20;99.90;;;;;;5113591;28;20020;-70
2022/04/06 04:38:56;;;;;;;25.17;9.30;;;9.20;99.90;;;;;;5113482;28;20392;-70
2022/04/06 04:41:22;;;;;;;21.50;8.77;;;9.20;99.90;;;;;;5113541;28;20026;-69
2022/04/06 04:43:50;;;;;;;24.35;9.20;;;9.20;99.90;;;;;;5113588;28;20057;-71
2022/04/06 04:46:18;;;;;;;18.23;8.93;;;9.20;99.90;;;;;;5113453;28;20076;-70
2022/04/06 04:48:45;;;;;;;20.88;8.90;;;9.20;99.90;;;;;;5113478;28;20063;-71
2022/04/06 04:51:11;;;;;;;21.40;9.70;;;9.20;99.90;;;;;;5112212;28;20027;-70
2022/04/06 04:53:37;;;;;;;16.67;7.85;;;9.20;99.90;;;;;;5113520;28;20039;-71
2022/04/06 04:56:02;;;;;;;28.58;9.77;;;9.20;99.90;;;;;;5113685;28;20031;-71
2022/04/06 04:58:28;;;;;;;25.15;9.55;;;9.20;99.90;;;;;;5112076;28;20393;-70
2022/04/06 05:00:54;;;;;;;25.13;10.13;;;9.20;99.90;;;;;;5112033;28;20027;-70
2022/04/06 05:03:21;;;;;;;24.15;9.85;;;9.10;99.90;;;;;;5095259;28;20020;-70
2022/04/06 05:05:49;;;;;;;21.00;9.18;;;9.10;99.90;;;;;;5112152;28;20099;-71
2022/04/06 05:08:15;;;;;;;18.73;8.43;;;9.10;99.90;;;;;;5095450;28;20093;-70
2022/04/06 05:10:41;;;;;;;19.42;8.98;;;9.20;99.90;;;;;;5115570;28;20099;-70
2022/04/06 05:13:06;;;;;;;21.27;9.30;;;9.10;99.90;;;;;;5116120;28;20023;-70
2022/04/06 05:15:32;;;;;;;18.75;8.88;;;9.10;99.90;;;;;;5117180;28;20497;-70
2022/04/06 05:17:58;;;;;;;24.50;9.18;;;9.10;99.90;;;;;;5115907;28;20066;-70
2022/04/06 05:20:23;;;;;;;18.33;8.18;;;9.10;99.90;;;;;;5115819;28;20023;-70
2022/04/06 05:22:49;;;;;;;22.80;8.48;;;9.10;99.90;;;;;;5117000;28;20024;-70
2022/04/06 05:25:14;;;;;;;21.65;8.10;;;9.10;99.90;;;;;;5115658;28;20027;-71
2022/04/06 05:27:49;;;;;;;16.40;8.48;;;9.20;99.90;;;;;;5115497;28;20493;-71
2022/04/06 05:30:16;;;;;;;18.33;7.75;;;9.20;99.90;;;;;;5116932;28;20019;-70
2022/04/06 05:32:42;;;;;;;17.88;8.02;;;9.20;99.90;;;;;;5115687;28;20473;-70
2022/04/06 05:35:09;;;;;;;20.77;8.00;;;9.20;99.90;;;;;;5115612;28;20095;-70
2022/04/06 05:37:36;;;;;;;15.80;7.72;;;9.20;99.90;;;;;;5115697;28;20546;-70
2022/04/06 05:40:02;;;;;;;17.23;7.65;;;9.30;99.90;;;;;;5116684;28;20508;-70
2022/04/06 05:42:28;;;;;;;20.83;8.05;;;9.30;99.90;;;;;;5116565;28;20027;-70
2022/04/06 05:44:53;;;;;;;18.13;7.78;;;9.30;99.90;;;;;;5116617;28;20027;-70
2022/04/06 05:47:19;;;;;;;15.45;7.07;;;9.40;99.90;;;;;;5116380;28;20024;-70
2022/04/06 05:49:44;;;;;;;14.00;7.13;;;9.40;99.90;;;;;;5116480;28;20023;-70
2022/04/06 05:52:10;;;;;;;17.80;8.20;;;9.40;99.90;;;;;;5115162;28;20016;-70
2022/04/06 05:54:36;;;;;;;14.40;7.75;;;9.40;99.90;;;;;;5116427;28;20059;-70
2022/04/06 05:57:02;;;;;;;13.40;6.72;;;9.40;99.90;;;;;;5116355;28;20477;-71
2022/04/06 05:59:27;;;;;;;17.88;7.13;;;9.50;99.90;;;;;;5115071;28;20431;-70
2022/04/06 06:01:53;;;;;;;14.90;7.28;;;9.50;99.90;;;;;;5116126;28;20035;-70
2022/04/06 06:04:18;;;;;;;21.90;6.50;;;9.50;99.90;;;;;;5116017;28;20020;-70
2022/04/06 06:06:44;;;;;;;19.27;7.55;;;9.50;99.90;;;;;;5103497;28;20438;-70
2022/04/06 06:09:10;;;;;;;15.77;7.15;;;9.50;99.90;;;;;;5095133;28;20035;-70
2022/04/06 06:11:36;;;;;;;19.92;7.07;;;9.40;99.90;;;;;;5094161;28;20024;-70
2022/04/06 06:14:02;;;;;;;23.88;7.28;;;9.40;99.90;;;;;;5094053;28;20505;-70
2022/04/06 06:16:28;;;;;;;19.00;6.22;;;9.40;99.90;;;;;;5094615;28;20027;-70
2022/04/06 06:18:55;;;;;;;19.73;6.65;;;9.50;99.90;;;;;;5077394;28;20032;-71
2022/04/06 06:21:21;;;;;;;14.68;6.55;;;9.50;99.90;;;;;;5056998;28;20025;-70
2022/04/06 06:23:46;;;;;;;13.43;6.25;;;9.50;99.90;;;;;;5073919;28;20024;-70
2022/04/06 06:26:12;;;;;;;15.57;6.35;;;9.50;99.90;;;;;;5080072;28;20036;-70
2022/04/06 06:28:39;;;;;;;15.82;6.00;;;9.60;99.90;;;;;;5095127;28;20436;-70
2022/04/06 06:31:04;;;;;;;18.20;6.15;;;9.60;99.90;;;;;;5093343;28;20016;-70
2022/04/06 06:33:30;;;;;;;15.77;6.47;;;9.50;99.90;;;;;;5093612;28;20107;-70
2022/04/06 06:35:56;;;;;;;14.95;5.88;;;9.50;99.90;;;;;;5094231;28;20020;-71
2022/04/06 06:38:21;;;;;;;12.13;5.63;;;9.50;99.90;;;;;;5095126;28;20027;-70
2022/04/06 06:40:48;;;;;;;23.63;6.32;;;9.60;99.90;;;;;;5092477;28;20032;-71
2022/04/06 06:43:15;;;;;;;13.60;4.78;;;9.60;99.90;;;;;;5094970;28;20058;-71
2022/04/06 06:45:40;;;;;;;11.57;5.40;;;9.60;99.90;;;;;;5093821;28;20030;-70
2022/04/06 06:48:06;;;;;;;17.50;5.60;;;9.60;99.90;;;;;;5093187;28;20032;-70
2022/04/06 06:50:32;;;;;;;13.98;5.75;;;9.60;99.90;;;;;;5093043;28;20392;-71
2022/04/06 06:52:58;;;;;;;13.90;5.75;;;9.60;99.90;;;;;;5094107;28;20032;-70
2022/04/06 06:55:23;;;;;;;18.52;5.38;;;9.70;99.90;;;;;;5075369;28;20024;-70
2022/04/06 06:57:49;;;;;;;15.23;5.13;;;9.70;99.90;;;;;;5093999;28;20055;-69
2022/04/06 07:00:15;;;;;;;17.73;5.40;;;9.70;99.90;;;;;;5093767;28;20375;-73
2022/04/06 07:02:41;;;;;;;18.23;5.60;;;9.80;99.90;;;;;;5093798;28;20115;-64
2022/04/06 07:05:07;;;;;;;17.00;5.22;;;9.80;99.90;;;;;;5093460;28;20032;-65
2022/04/06 07:07:46;;;;;;;14.40;4.38;;;9.80;99.90;;;;;;5092830;28;20028;-64
2022/04/06 07:10:11;;;;;;;14.40;5.60;;;9.80;99.90;;;;;;5092968;28;20024;-64
2022/04/06 07:12:37;;;;;;;14.93;5.60;;;9.80;99.90;;;;;;5093215;28;20368;-65
2022/04/06 07:15:03;;;;;;;11.73;5.65;;;9.80;99.90;;;;;;5093990;28;20362;-64
2022/04/06 07:17:28;;;;;;;11.68;5.68;;;9.80;99.90;;;;;;5093896;28;20485;-64
2022/04/06 07:19:55;;;;;;;16.15;5.05;;;9.80;99.90;;;;;;5093118;28;20032;-64
2022/04/06 07:22:20;;;;;;;11.95;5.03;;;9.80;99.90;;;;;;5093780;28;20543;-64
2022/04/06 07:24:46;;;;;;;12.80;5.03;;;9.80;99.90;;;;;;5093410;28;20036;-64
2022/04/06 07:27:12;;;;;;;13.50;5.03;;;9.80;99.90;;;;;;5093576;28;20040;-64
2022/04/06 07:29:37;;;;;;;14.93;4.88;;;9.90;99.90;;;;;;5093233;28;20474;-64
2022/04/06 07:32:04;;;;;;;10.10;4.53;;;9.90;99.90;;;;;;5093474;28;20085;-64
2022/04/06 07:34:39;;;;;;;14.15;4.40;;;9.90;99.90;;;;;;5092340;28;20020;-64
2022/04/06 07:37:05;;;;;;;12.15;4.00;;;10.00;99.90;;;;;;5093991;28;20463;-64
2022/04/06 07:39:30;;;;;;;14.10;4.47;;;10.00;99.90;;;;;;5093538;28;20089;-64
2022/04/06 07:41:56;;;;;;;9.18;4.00;;;10.10;99.90;;;;;;5093180;28;20036;-64
2022/04/06 07:44:23;;;;;;;9.30;3.55;;;10.10;99.90;;;;;;5092645;28;20020;-64
2022/04/06 07:46:48;;;;;;;11.60;4.05;;;10.10;99.90;;;;;;5091837;28;20538;-64
2022/04/06 07:49:14;;;;;;;7.95;3.97;;;10.10;99.90;;;;;;5093186;28;20036;-65
2022/04/06 07:51:39;;;;;;;10.98;4.13;;;10.20;99.90;;;;;;5092033;28;20040;-65
2022/04/06 07:54:05;;;;;;;12.70;4.50;;;10.10;99.90;;;;;;5092628;28;20127;-64
2022/04/06 07:56:30;;;;;;;12.13;4.88;;;10.20;99.90;;;;;;5093037;28;20024;-64
2022/04/06 07:58:56;;;;;;;10.75;4.80;;;10.10;99.90;;;;;;5092622;28;20043;-64
2022/04/06 08:01:22;;;;;;;12.63;5.32;;;10.20;99.90;;;;;;5091464;28;20039;-67
2022/04/06 08:03:47;;;;;;;17.13;5.55;;;10.00;99.90;;;;;;5092672;28;20425;-68
2022/04/06 08:06:13;;;;;;;17.52;5.50;;;9.90;99.90;;;;;;5092768;28;20036;-68
2022/04/06 08:08:39;;;;;;;13.90;5.30;;;9.80;99.90;;;;;;5091931;28;20486;-68
2022/04/06 08:11:05;;;;;;;11.68;4.90;;;9.80;99.90;;;;;;5091588;28;20484;-68
2022/04/06 08:13:32;;;;;;;15.98;5.82;;;9.70;99.90;;;;;;5092617;28;20027;-68
2022/04/06 08:15:58;;;;;;;12.45;5.80;;;9.70;99.90;;;;;;5092982;28;20082;-68
2022/04/06 08:18:24;;;;;;;14.35;6.28;;;9.70;99.90;;;;;;5091512;28;20059;-69
2022/04/06 08:20:49;;;;;;;9.77;5.75;;;9.60;99.90;;;;;;5092649;28;20059;-65
2022/04/06 08:23:17;;;;;;;16.65;6.28;;;9.50;99.90;;;;;;5091312;28;20385;-67
2022/04/06 08:25:43;;;;;;;13.55;5.40;;;9.40;99.90;;;;;;5092524;28;20024;-69
2022/04/06 08:28:10;;;;;;;14.35;5.90;;;9.40;99.90;;;;;;5092177;28;20032;-69
2022/04/06 08:30:40;;;;;;;11.50;5.82;;;9.40;99.90;;;;;;5073698;28;20386;-68
2022/04/06 08:33:06;;;;;;;11.73;6.07;;;9.50;99.90;;;;;;5092228;28;20022;-71
2022/04/06 08:35:32;;;;;;;15.20;6.18;;;9.60;99.90;;;;;;5091385;28;20024;-70
2022/04/06 08:37:57;;;;;;;15.18;5.65;;;9.60;99.90;;;;;;5092364;28;20364;-69
2022/04/06 08:40:23;;;;;;;14.45;6.10;;;9.70;99.90;;;;;;5091974;28;20510;-70
2022/04/06 08:42:49;;;;;;;13.25;5.00;;;9.70;99.90;;;;;;5091884;28;20028;-69
2022/04/06 08:45:16;;;;;;;11.63;5.38;;;9.70;99.90;;;;;;5096100;28;20047;-70
2022/04/06 08:47:47;;;;;;;11.32;5.10;;;9.70;99.90;;;;;;5095309;28;20036;-70
2022/04/06 08:50:13;;;;;;;10.02;5.30;;;9.70;99.90;;;;;;5077097;28;20032;-71
2022/04/06 08:52:39;;;;;;;12.02;4.95;;;9.70;99.90;;;;;;5077061;28;20016;-71
2022/04/06 08:55:05;;;;;;;9.55;4.70;;;9.70;99.90;;;;;;5074935;28;20095;-65
2022/04/06 08:57:33;;;;;;;10.80;5.05;;;9.80;99.90;;;;;;5090744;28;20038;-71
2022/04/06 08:59:58;;;;;;;16.13;8.30;;;9.80;99.90;;;;;;5096789;28;20482;-69
2022/04/06 09:02:24;;;;;;;11.90;4.18;;;9.80;99.90;;;;;;5096246;28;20028;-70
2022/04/06 09:04:53;;;;;;;10.02;4.80;;;9.80;99.90;;;;;;5096952;28;20031;-69
2022/04/06 09:07:21;;;;;;;10.40;5.05;;;9.80;99.90;;;;;;5094721;28;20101;-69
2022/04/06 09:09:50;;;;;;;15.60;5.47;;;9.80;99.90;;;;;;5094961;28;20359;-69
2022/04/06 09:12:19;;;;;;;9.27;4.20;;;9.80;99.90;;;;;;5095687;28;20516;-69
2022/04/06 09:14:44;;;;;;;11.27;4.00;;;9.90;99.90;;;;;;5095952;28;20024;-69
2022/04/06 09:17:10;;;;;;;6.50;3.55;;;10.00;99.90;;;;;;5096385;28;20414;-70
2022/04/06 09:19:37;;;;;;;11.80;4.05;;;10.00;99.90;;;;;;5096110;28;20024;-70
2022/04/06 09:22:07;;;;;;;11.38;3.78;;;10.00;99.90;;;;;;5096309;28;20352;-71
2022/04/06 09:24:32;;;;;;;15.05;4.30;;;10.10;99.90;;;;;;5095794;28;20528;-69
2022/04/06 09:26:59;;;;;;;7.63;3.95;;;10.00;99.90;;;;;;5095535;28;20040;-70
2022/04/06 09:29:25;;;;;;;7.75;4.03;;;9.90;99.90;;;;;;5095406;28;20107;-70
2022/04/06 09:31:52;;;;;;;8.27;4.47;;;9.90;99.90;;;;;;5093613;28;20146;-70
2022/04/06 09:34:22;;;;;;;11.35;4.50;;;9.80;99.90;;;;;;5094558;28;20451;-69
2022/04/06 09:36:48;;;;;;;8.27;4.43;;;9.70;99.90;;;;;;5095979;28;20016;-70
2022/04/06 09:39:13;;;;;;;11.52;4.45;;;9.80;99.90;;;;;;5095525;28;20481;-70
2022/04/06 09:41:59;;;;;;;8.52;4.15;;;9.80;99.90;;;;;;5093529;28;20039;-70
2022/04/06 09:47:44;;;;;;;11.30;4.47;;;10.00;99.90;;;;;;5093795;28;20028;-70
2022/04/06 09:50:22;;;;;;;12.05;4.95;;;10.20;99.90;;;;;;5094228;28;20026;-69
2022/04/06 09:52:49;;;;;;;10.25;4.22;;;10.50;99.90;;;;;;5093923;28;20094;-70
2022/04/06 09:55:16;;;;;;;11.85;4.50;;;10.50;99.90;;;;;;5095188;28;20095;-70
2022/04/06 09:57:45;;;;;;;8.10;3.85;;;10.50;99.90;;;;;;5095230;28;20032;-69
2022/04/06 10:00:16;;;;;;;10.32;3.97;;;10.50;99.90;;;;;;5097159;28;20024;-70
2022/04/06 10:02:44;;;;;;;10.32;4.03;;;10.40;99.90;;;;;;5107921;28;20386;-73
2022/04/06 10:05:12;;;;;;;11.32;3.80;;;10.40;99.90;;;;;;5094251;28;20031;-73
2022/04/06 10:07:39;;;;;;;9.88;3.92;;;10.50;99.90;;;;;;5093558;28;20074;-73
2022/04/06 10:10:05;;;;;;;8.65;3.85;;;10.50;99.90;;;;;;5094558;28;20090;-74
2022/04/06 10:12:31;;;;;;;9.32;4.05;;;10.60;99.90;;;;;;5095438;28;20425;-72
2022/04/06 10:15:00;;;;;;;8.63;3.78;;;10.40;99.90;;;;;;5093299;28;20386;-73
2022/04/06 10:17:29;;;;;;;12.55;3.30;;;10.40;99.90;;;;;;5094449;28;20485;-72
2022/04/06 10:20:05;;;;;;;11.57;3.60;;;10.40;99.90;;;;;;5094912;28;20080;-74
2022/04/06 10:22:55;;;;;;;6.45;3.60;;;10.40;99.90;;;;;;5094356;28;20027;-73
2022/04/06 10:26:00;;;;;;;15.65;10.07;;;10.40;99.90;;;;;;5095191;28;20064;-72
2022/04/06 10:28:25;;;;;;;8.85;4.50;;;10.30;99.90;;;;;;5094885;28;20040;-72
2022/04/06 10:33:51;;;;;;;25.80;15.25;;;10.20;99.90;;;;;;5110227;27;20135;-71
2022/04/06 10:36:23;;;;;;;8.57;2.95;;;10.30;99.90;;;;;;5089297;28;20494;-70
2022/04/06 10:42:16;;;;;;;4.90;2.90;;;10.30;99.90;;;;;;5114506;27;1144398;-77
2022/04/06 10:44:43;;;;;;;9.73;3.17;;;10.40;99.90;;;;;;5128963;27;20404;-74
2022/04/06 10:47:12;;;;;;;7.80;3.53;;;10.40;99.90;;;;;;5130732;27;20015;-74
2022/04/06 10:49:38;;;;;;;6.45;3.05;;;10.50;99.90;;;;;;5131433;27;20022;-73
2022/04/06 10:52:26;;;;;;;10.88;3.25;;;10.40;99.90;;;;;;5129714;28;20023;-74
2022/04/06 10:54:52;;;;;;;8.07;3.17;;;10.40;99.90;;;;;;5130222;28;20016;-73
2022/04/06 10:57:19;;;;;;;8.05;2.70;;;10.30;99.90;;;;;;5129378;28;20077;-76
2022/04/06 11:00:13;;;;;;;9.57;2.95;;;10.30;99.90;;;;;;5131119;27;20020;-75
2022/04/06 11:02:49;;;;;;;12.77;3.47;;;10.30;99.90;;;;;;5130564;27;20394;-75
2022/04/06 11:05:50;;;;;;;6.20;2.92;;;10.20;99.90;;;;;;5129907;28;20389;-76
2022/04/06 11:11:44;;;;;;;6.05;3.30;;;10.40;99.90;;;;;;5116790;28;20023;-73
2022/04/06 11:14:11;;;;;;;10.02;3.30;;;10.40;99.90;;;;;;5130799;27;20026;-74
2022/04/06 11:16:45;;;;;;;11.13;3.50;;;10.50;99.90;;;;;;5108868;28;20042;-74
2022/04/06 11:19:12;;;;;;;6.15;3.63;;;10.50;99.90;;;;;;5108960;28;20016;-74
2022/04/06 11:21:51;;;;;;;7.45;3.55;;;10.60;99.90;;;;;;5124028;28;20023;-74
2022/04/06 11:24:20;;;;;;;35.83;21.42;;;10.50;99.90;;;;;;5108758;28;20016;-74
2022/04/06 11:26:45;;;;;;;9.40;3.75;;;10.60;99.90;;;;;;5117043;28;20393;-73
2022/04/06 11:29:12;;;;;;;10.88;3.63;;;10.40;99.90;;;;;;5130229;27;20019;-74
2022/04/06 11:31:59;;;;;;;12.63;6.07;;;10.40;99.90;;;;;;5128638;28;20543;-74
2022/04/06 11:34:30;;;;;;;11.68;4.07;;;10.40;99.90;;;;;;5130117;27;20031;-74
2022/04/06 11:36:58;;;;;;;6.53;3.42;;;10.30;99.90;;;;;;5130205;27;20015;-74
2022/04/06 11:39:24;;;;;;;9.85;3.60;;;10.30;99.90;;;;;;5129930;27;20023;-75
2022/04/06 11:41:50;;;;;;;11.63;3.58;;;10.30;99.90;;;;;;5130059;28;20039;-74
2022/04/06 11:44:20;;;;;;;8.85;3.53;;;10.50;99.90;;;;;;5130964;27;20073;-75
2022/04/06 11:46:46;;;;;;;19.48;6.93;;;10.50;99.90;;;;;;5130440;27;20065;-75
2022/04/06 11:49:12;;;;;;;13.90;5.20;;;10.60;99.90;;;;;;5130291;28;20028;-75
2022/04/06 11:51:39;;;;;;;17.05;9.48;;;10.50;99.90;;;;;;5122533;28;20093;-75
2022/04/06 11:54:05;;;;;;;14.60;5.82;;;10.50;99.90;;;;;;5116175;28;20031;-75
2022/04/06 11:56:31;;;;;;;7.78;4.07;;;10.30;99.90;;;;;;5114850;28;20047;-75
2022/04/06 11:58:57;;;;;;;9.73;4.88;;;10.30;99.90;;;;;;5115125;28;20023;-75
2022/04/06 12:01:28;;;;;;;10.13;3.88;;;10.20;99.90;;;;;;5097817;28;20497;-75
2022/04/06 12:03:58;;;;;;;14.02;5.68;;;10.10;99.90;;;;;;5098787;28;20512;-75
2022/04/06 12:06:31;;;;;;;18.63;6.68;;;10.00;99.90;;;;;;5115890;28;20112;-75
2022/04/06 12:08:57;;;;;;;22.45;6.00;;;10.00;99.90;;;;;;5114899;28;20085;-75
2022/04/06 12:11:22;;;;;;;13.18;4.97;;;10.10;99.90;;;;;;5114370;28;20135;-75
2022/04/06 12:13:49;;;;;;;110.63;54.45;;;10.10;99.90;;;;;;5116092;28;20023;-75
2022/04/06 12:16:15;;;;;;;18.67;12.95;;;10.10;99.90;;;;;;5108826;28;20024;-76
2022/04/06 12:18:42;;;;;;;9.35;4.82;;;10.10;99.90;;;;;;5095572;28;20024;-75
2022/04/06 12:21:20;;;;;;;14.93;5.10;;;10.10;99.90;;;;;;5110121;28;20417;-76
2022/04/06 12:23:46;;;;;;;8.77;4.88;;;10.00;99.90;;;;;;5114587;28;20099;-75
2022/04/06 12:26:12;;;;;;;12.98;5.80;;;9.90;99.90;;;;;;5094043;28;20020;-75
2022/04/06 12:28:38;;;;;;;11.07;7.22;;;10.00;99.90;;;;;;5094213;28;20543;-75
2022/04/06 12:31:05;;;;;;;14.63;7.15;;;9.80;99.90;;;;;;5100853;28;20020;-76
2022/04/06 12:33:47;;;;;;;12.82;7.53;;;9.70;99.90;;;;;;5094026;28;20024;-76
2022/04/06 12:36:24;;;;;;;12.30;8.07;;;9.50;99.90;;;;;;5107608;28;20023;-76
2022/04/06 12:39:13;;;;;;;13.07;7.70;;;9.30;99.90;;;;;;5114015;28;20039;-76
2022/04/06 12:41:59;;;;;;;12.00;8.13;;;9.20;99.90;;;;;;5113901;28;20047;-76
2022/04/06 12:44:26;;;;;;;14.32;9.07;;;9.20;99.90;;;;;;5113740;28;20023;-76
2022/04/06 12:46:53;;;;;;;19.90;10.43;;;9.10;99.90;;;;;;5114062;28;20489;-75
2022/04/06 12:49:36;;;;;;;14.70;9.93;;;9.10;99.90;;;;;;5113530;28;20469;-76
2022/04/06 12:54:45;;;;;;;15.90;9.77;;;9.10;99.90;;;;;;5110204;27;20367;-69
2022/04/06 12:57:31;;;;;;;15.25;9.80;;;9.20;99.90;;;;;;5102539;28;20023;-70
2022/04/06 12:59:59;;;;;;;16.58;9.20;;;9.20;99.90;;;;;;5089270;28;20024;-69
2022/04/06 13:02:32;;;;;;;19.85;10.45;;;9.20;99.90;;;;;;5097277;28;20130;-69
2022/04/06 13:04:59;;;;;;;;;;;9.20;99.90;;;;;;5096159;27;20047;-69